Portada
METAR-TAF:

METAR-TAF

Aeropuertos :

Montichiari

Brescia, Italia

latitud: 45-24-02N, longitud: 010-18-59E, altitud: 104 m

Observación

El informe se hizo hace 3 horas y 41 minutos, a las 23:50 UTC
Viento 6 kt del este-noreste
Temperatura 16°C
Humedad 77%
Presión 1017 hPa
Visibilidad 10 km o más
sin nubes por debajo de 1500 m y sin presencia de cumulonimbus.

METAR: LIPO 312350Z 06006KT CAVOK 16/12 Q1017

Hora: 05:31 (03:31 UTC)

Pronóstico

El informe se hizo hace 9 horas y 6 minutos, a las 18:25 UTC
Pronóstico válido del 31 a las 18 UTC al 01 a las 18 UTC
Viento 6 kt con dirección variable
Visibilidad 10 km o más
Nubes dispersas a una altura de 3000 ft

TAF: LIPO 311825Z 3118/0118 VRB06KT 9999 SCT030

Observaciones y pronósticos meteorológicos de más de 4000 aeropuertos (mensajes METAR y TAF).

Los puntos amarillos y rojos representan las estaciones disponibles.

Ponga el ratón en el punto deseado para ver el nombre de la estación.

Haga clic para ver las observaciones y los pronósticos meteorológicos.

Para cambiar el mapa : haga clic en los botones verdes con una cruz de color negro para hacer un zoom, en el botón verde con un guión para alejar o en las flechas verdes para mapas adyacentes.


METAR-TAF: